createdAt,value
2018-08-20T00:00:51.401Z,8.33
2018-08-20T00:05:59.203Z,8.95
2018-08-20T00:10:55.501Z,9.20
2018-08-20T00:15:48.415Z,9.15
2018-08-20T00:20:41.388Z,8.83
2018-08-20T00:25:34.470Z,8.70
2018-08-20T00:30:27.402Z,8.48
2018-08-20T00:35:20.530Z,8.88
2018-08-20T00:40:13.486Z,7.60
2018-08-20T00:45:06.638Z,8.15
2018-08-20T00:49:59.635Z,8.00
2018-08-20T00:54:52.681Z,8.53
2018-08-20T00:59:45.632Z,8.25
2018-08-20T01:04:38.695Z,8.05
2018-08-20T01:09:31.597Z,8.68
2018-08-20T01:14:24.713Z,8.58
2018-08-20T01:19:18.042Z,9.05
2018-08-20T01:24:11.689Z,8.28
2018-08-20T01:29:04.803Z,7.97
2018-08-20T01:33:57.725Z,8.25
2018-08-20T01:38:50.693Z,9.15
2018-08-20T01:43:43.668Z,8.25
2018-08-20T01:48:36.620Z,9.33
2018-08-20T01:53:29.770Z,8.95
2018-08-20T01:58:22.714Z,8.23
2018-08-20T02:03:15.749Z,8.13
2018-08-20T02:08:08.850Z,8.78
2018-08-20T02:13:01.800Z,9.03
2018-08-20T02:17:55.448Z,8.60
2018-08-20T02:22:48.532Z,9.05
2018-08-20T02:27:41.542Z,8.50
2018-08-20T02:32:34.830Z,9.43
2018-08-20T02:37:31.856Z,9.45
2018-08-20T02:42:24.938Z,8.95
2018-08-20T02:47:17.965Z,9.40
2018-08-20T02:52:10.907Z,9.20
2018-08-20T02:57:03.931Z,8.38
2018-08-20T03:01:57.063Z,8.58
2018-08-20T03:06:50.016Z,8.40
2018-08-20T03:11:43.111Z,9.15
2018-08-20T03:16:36.622Z,9.25
2018-08-20T03:21:29.813Z,9.53
2018-08-20T03:26:22.789Z,9.43
2018-08-20T03:31:15.790Z,8.98
2018-08-20T03:36:08.905Z,9.45
2018-08-20T03:41:01.985Z,9.65
2018-08-20T03:45:55.134Z,10.25
2018-08-20T03:50:48.189Z,10.18
2018-08-20T03:55:41.181Z,10.58
2018-08-20T04:00:34.353Z,12.13
2018-08-20T04:05:27.419Z,9.93
2018-08-20T04:10:20.382Z,10.23
2018-08-20T04:15:13.281Z,8.80
2018-08-20T04:20:07.187Z,9.08
2018-08-20T04:25:00.311Z,8.68
2018-08-20T04:29:54.147Z,8.85
2018-08-20T04:34:47.117Z,8.68
2018-08-20T04:39:41.115Z,6.97
2018-08-20T04:44:35.740Z,9.03
2018-08-20T04:49:28.809Z,7.10
2018-08-20T04:54:21.802Z,8.40
2018-08-20T04:59:14.838Z,8.85
2018-08-20T05:04:07.938Z,8.43
2018-08-20T05:09:01.613Z,7.75
2018-08-20T05:13:54.998Z,6.87
2018-08-20T05:18:47.983Z,6.75
2018-08-20T05:23:40.951Z,6.40
2018-08-20T05:28:33.950Z,6.42
2018-08-20T05:33:26.929Z,6.35
2018-08-20T05:38:20.425Z,6.05
2018-08-20T05:43:13.415Z,5.65
2018-08-20T05:48:06.633Z,6.00
2018-08-20T05:52:59.675Z,6.80
2018-08-20T05:57:53.477Z,6.12
2018-08-20T06:02:46.963Z,4.72
2018-08-20T06:07:40.199Z,5.12
2018-08-20T06:12:33.571Z,4.25
2018-08-20T06:17:26.608Z,5.33
2018-08-20T06:22:19.580Z,4.80
2018-08-20T06:27:12.736Z,5.70
2018-08-20T06:32:06.096Z,4.00
2018-08-20T06:36:59.212Z,4.20
2018-08-20T06:41:52.302Z,4.03
2018-08-20T06:46:45.339Z,4.55
2018-08-20T06:51:38.837Z,4.05
2018-08-20T06:56:31.830Z,8.25
2018-08-20T07:01:25.125Z,4.45
2018-08-20T07:06:19.248Z,3.70
2018-08-20T07:11:12.249Z,3.05
2018-08-20T07:16:06.552Z,3.70
2018-08-20T07:20:59.545Z,3.30
2018-08-20T07:25:53.197Z,3.67
2018-08-20T07:30:46.362Z,3.60
2018-08-20T07:35:39.601Z,3.60
2018-08-20T07:40:33.159Z,3.53
2018-08-20T07:45:26.153Z,3.30
2018-08-20T07:50:19.152Z,3.60
2018-08-20T07:55:12.122Z,3.72
2018-08-20T08:00:07.354Z,3.83
2018-08-20T08:05:00.454Z,3.62
2018-08-20T08:09:53.497Z,4.00
2018-08-20T08:14:47.460Z,4.20
2018-08-20T08:19:40.754Z,4.05
2018-08-20T08:24:33.666Z,3.95
2018-08-20T08:29:26.869Z,4.25
2018-08-20T08:34:19.852Z,3.62
2018-08-20T08:39:13.023Z,3.80
2018-08-20T08:44:06.250Z,3.60
2018-08-20T08:48:59.302Z,3.40
2018-08-20T08:53:52.461Z,3.80
2018-08-20T08:58:45.500Z,3.72
2018-08-20T09:03:38.628Z,4.33
2018-08-20T09:08:32.522Z,4.10
2018-08-20T09:13:28.609Z,3.97
2018-08-20T09:18:21.663Z,4.25
2018-08-20T09:23:14.820Z,4.55
2018-08-20T09:28:07.890Z,4.03
2018-08-20T09:33:00.926Z,4.40
2018-08-20T09:37:54.126Z,4.10
2018-08-20T09:42:47.064Z,4.10
2018-08-20T09:47:40.940Z,4.22
2018-08-20T09:52:33.994Z,4.10
2018-08-20T09:57:27.056Z,4.30
2018-08-20T10:02:20.019Z,4.20
2018-08-20T10:07:13.533Z,4.35
2018-08-20T10:12:06.680Z,3.60
2018-08-20T10:16:59.841Z,4.20
2018-08-20T10:21:53.945Z,4.55
2018-08-20T10:26:47.444Z,4.50
2018-08-20T10:31:40.438Z,4.10
2018-08-20T10:36:33.808Z,4.17
2018-08-20T10:41:26.785Z,4.58
2018-08-20T10:46:24.239Z,4.22
2018-08-20T10:51:17.246Z,4.45
2018-08-20T10:56:10.255Z,4.28
2018-08-20T11:01:03.482Z,4.25
2018-08-20T11:05:56.535Z,4.20
2018-08-20T11:10:49.669Z,4.08
2018-08-20T11:15:42.676Z,4.60
2018-08-20T11:20:35.647Z,4.60
2018-08-20T11:25:28.740Z,4.28
2018-08-20T11:30:22.129Z,4.15
2018-08-20T11:35:15.077Z,4.47
2018-08-20T11:40:08.685Z,4.55
2018-08-20T11:45:01.851Z,4.20
2018-08-20T11:49:54.885Z,4.12
2018-08-20T11:54:47.894Z,5.00
2018-08-20T11:59:40.843Z,4.75
2018-08-20T12:04:33.795Z,4.45
2018-08-20T12:09:26.804Z,4.50
2018-08-20T12:14:19.838Z,4.12
2018-08-20T12:19:12.854Z,4.80
2018-08-20T12:24:06.532Z,4.30
2018-08-20T12:29:00.112Z,4.45
2018-08-20T12:33:53.111Z,4.42
2018-08-20T12:38:46.117Z,4.50
2018-08-20T12:43:39.854Z,4.12
2018-08-20T12:48:35.861Z,4.08
2018-08-20T12:53:28.911Z,4.83
2018-08-20T12:58:22.121Z,4.78
2018-08-20T13:03:15.127Z,4.47
2018-08-20T13:08:10.199Z,4.10
2018-08-20T13:13:04.087Z,4.30
2018-08-20T13:17:57.233Z,4.50
2018-08-20T13:22:50.367Z,4.60
2018-08-20T13:27:43.436Z,4.17
2018-08-20T13:32:36.466Z,4.60
2018-08-20T13:37:30.096Z,4.30
2018-08-20T13:42:23.098Z,4.17
2018-08-20T13:47:16.125Z,3.92
2018-08-20T13:52:09.100Z,4.80
2018-08-20T13:57:02.110Z,4.10
2018-08-20T14:01:55.144Z,4.70
2018-08-20T14:06:48.108Z,4.60
2018-08-20T14:11:41.172Z,3.90
2018-08-20T14:16:34.200Z,4.58
2018-08-20T14:21:27.156Z,3.98
2018-08-20T14:26:20.312Z,4.05
2018-08-20T14:31:13.349Z,4.67
2018-08-20T14:36:06.940Z,4.22
2018-08-20T14:41:00.984Z,4.20
2018-08-20T14:45:59.557Z,4.30
2018-08-20T14:50:52.616Z,4.40
2018-08-20T14:55:45.760Z,4.35
2018-08-20T15:00:38.838Z,4.90
2018-08-20T15:05:31.936Z,4.60
2018-08-20T15:10:25.214Z,4.60
2018-08-20T15:15:18.404Z,4.40
2018-08-20T15:20:11.368Z,4.55
2018-08-20T15:25:04.714Z,5.30
2018-08-20T15:29:57.651Z,6.75
2018-08-20T15:34:50.664Z,4.25
2018-08-20T15:39:43.590Z,4.75
2018-08-20T15:44:37.594Z,4.47
2018-08-20T15:49:30.655Z,4.95
2018-08-20T15:54:23.631Z,5.42
2018-08-20T15:59:16.716Z,4.50
2018-08-20T16:04:09.768Z,4.40
2018-08-20T16:09:03.328Z,4.72
2018-08-20T16:13:56.379Z,4.58
2018-08-20T16:18:52.050Z,4.58
2018-08-20T16:23:51.608Z,5.20
2018-08-20T16:28:44.615Z,4.35
2018-08-20T16:33:37.635Z,4.90
2018-08-20T16:38:30.727Z,5.37
2018-08-20T16:43:23.814Z,5.72
2018-08-20T16:48:17.443Z,5.58
2018-08-20T16:53:10.462Z,6.30
2018-08-20T16:58:04.408Z,7.12
2018-08-20T17:02:57.722Z,5.65
2018-08-20T17:07:50.851Z,5.58
2018-08-20T17:12:43.871Z,5.67
2018-08-20T17:17:37.204Z,6.30
2018-08-20T17:22:30.255Z,5.80
2018-08-20T17:27:23.359Z,5.35
2018-08-20T17:32:16.396Z,5.47
2018-08-20T17:37:09.805Z,5.50
2018-08-20T17:42:02.933Z,5.72
2018-08-20T17:46:56.028Z,5.55
2018-08-20T17:51:49.725Z,5.75
2018-08-20T17:56:43.331Z,6.65
2018-08-20T18:01:37.514Z,7.85
2018-08-20T18:06:44.845Z,11.33
2018-08-20T18:11:42.361Z,5.30
2018-08-20T18:16:35.326Z,5.47
2018-08-20T18:21:28.379Z,5.70
2018-08-20T18:27:53.976Z,5.47
2018-08-20T18:32:47.014Z,5.65
2018-08-20T18:37:50.581Z,4.60
2018-08-20T18:42:46.968Z,5.50
2018-08-20T18:47:40.117Z,6.17
2018-08-20T18:52:33.272Z,5.60
2018-08-20T18:57:29.049Z,5.62
2018-08-20T19:02:33.988Z,5.58
2018-08-20T19:07:27.142Z,5.62
2018-08-20T19:12:20.251Z,5.20
2018-08-20T19:17:18.194Z,5.40
2018-08-20T19:22:17.148Z,5.47
2018-08-20T19:27:11.045Z,5.58
2018-08-20T19:32:04.044Z,5.58
2018-08-20T19:36:57.215Z,5.47
2018-08-20T19:41:50.362Z,5.45
2018-08-20T19:46:43.410Z,5.92
2018-08-20T19:51:38.293Z,5.65
2018-08-20T19:56:31.266Z,5.00
2018-08-20T20:01:25.314Z,4.80
2018-08-20T20:06:18.424Z,5.30
2018-08-20T20:11:19.281Z,4.95
2018-08-20T20:16:12.302Z,4.85
2018-08-20T20:21:05.396Z,5.12
2018-08-20T20:25:58.321Z,4.67
2018-08-20T20:30:51.379Z,4.78
2018-08-20T20:35:45.336Z,5.70
2018-08-20T20:40:38.380Z,4.95
2018-08-20T20:45:31.362Z,5.28
2018-08-20T20:50:27.009Z,5.40
2018-08-20T20:55:20.140Z,5.00
2018-08-20T21:00:13.089Z,4.87
2018-08-20T21:05:09.864Z,5.42
2018-08-20T21:10:02.998Z,5.22
2018-08-20T21:14:55.987Z,5.42
2018-08-20T21:19:48.977Z,4.70
2018-08-20T21:24:42.023Z,4.80
2018-08-20T21:29:34.972Z,5.05
2018-08-20T21:34:31.372Z,5.12
2018-08-20T21:39:24.427Z,5.35
2018-08-20T21:44:17.442Z,4.80
2018-08-20T21:49:11.057Z,4.90
2018-08-20T21:54:04.207Z,5.20
2018-08-20T21:58:57.216Z,5.20
2018-08-20T22:03:50.278Z,5.30
2018-08-20T22:08:43.395Z,5.00
2018-08-20T22:13:36.414Z,5.05
2018-08-20T22:18:34.122Z,5.20
2018-08-20T22:23:39.082Z,5.25
2018-08-20T22:28:20.159Z,5.20
2018-08-20T22:33:13.112Z,5.60
2018-08-20T22:38:06.697Z,5.12
2018-08-20T22:42:59.701Z,5.17
2018-08-20T22:47:52.818Z,5.03
2018-08-20T22:52:47.447Z,5.65
2018-08-20T22:57:49.354Z,5.62
2018-08-20T23:02:42.369Z,5.25
2018-08-20T23:07:35.370Z,5.47
2018-08-20T23:12:32.860Z,5.30
2018-08-20T23:17:25.826Z,5.40
2018-08-20T23:22:18.960Z,5.33
2018-08-20T23:27:11.947Z,4.90
2018-08-20T23:32:04.999Z,5.35
2018-08-20T23:36:57.934Z,5.45
2018-08-20T23:41:51.907Z,5.58
2018-08-20T23:46:46.642Z,5.55
2018-08-20T23:51:39.752Z,5.80
2018-08-20T23:56:32.804Z,5.35
